createdAt,value
2018-06-25T00:00:40.374Z,74.38
2018-06-25T00:03:08.052Z,73.87
2018-06-25T00:05:35.710Z,74.53
2018-06-25T00:08:03.342Z,75.49
2018-06-25T00:10:32.094Z,75.75
2018-06-25T00:12:59.724Z,75.69
2018-06-25T00:15:27.405Z,75.39
2018-06-25T00:17:55.080Z,75.73
2018-06-25T00:20:22.779Z,75.91
2018-06-25T00:22:50.412Z,75.88
2018-06-25T00:25:18.136Z,75.85
2018-06-25T00:27:45.851Z,75.79
2018-06-25T00:30:13.487Z,76.27
2018-06-25T00:32:41.149Z,76.02
2018-06-25T00:35:08.825Z,76.34
2018-06-25T00:37:36.460Z,75.72
2018-06-25T00:40:04.158Z,75.40
2018-06-25T00:42:31.815Z,75.00
2018-06-25T00:44:59.510Z,75.01
2018-06-25T00:47:27.174Z,75.67
2018-06-25T00:49:54.814Z,75.79
2018-06-25T00:52:22.410Z,76.44
2018-06-25T00:54:50.047Z,77.46
2018-06-25T00:57:17.692Z,78.70
2018-06-25T00:59:55.273Z,78.40
2018-06-25T01:02:23.336Z,77.85
2018-06-25T01:04:51.003Z,77.32
2018-06-25T01:07:19.098Z,78.21
2018-06-25T01:09:46.902Z,77.60
2018-06-25T01:12:14.695Z,77.46
2018-06-25T01:14:42.901Z,78.24
2018-06-25T01:17:10.705Z,77.52
2018-06-25T01:19:38.363Z,78.32
2018-06-25T01:22:07.151Z,78.02
2018-06-25T01:24:35.258Z,78.69
2018-06-25T01:27:02.977Z,78.15
2018-06-25T01:29:30.735Z,77.83
2018-06-25T01:31:58.358Z,77.68
2018-06-25T01:34:26.019Z,77.32
2018-06-25T01:36:53.711Z,77.60
2018-06-25T01:39:21.343Z,77.21
2018-06-25T01:41:48.948Z,77.02
2018-06-25T01:44:16.642Z,76.73
2018-06-25T01:46:44.289Z,76.78
2018-06-25T01:49:12.943Z,75.84
2018-06-25T01:51:40.619Z,76.38
2018-06-25T01:54:08.313Z,77.27
2018-06-25T01:56:35.997Z,77.00
2018-06-25T01:59:03.654Z,77.25
2018-06-25T02:01:31.269Z,77.85
2018-06-25T02:03:58.940Z,78.23
2018-06-25T02:06:26.683Z,78.29
2018-06-25T02:08:54.378Z,77.33
2018-06-25T02:11:22.168Z,77.59
2018-06-25T02:13:49.840Z,77.23
2018-06-25T02:16:17.452Z,77.59
2018-06-25T02:18:45.118Z,77.54
2018-06-25T02:21:12.780Z,76.91
2018-06-25T02:23:40.452Z,76.84
2018-06-25T02:26:08.108Z,77.70
2018-06-25T02:28:35.752Z,77.10
2018-06-25T02:31:03.459Z,76.84
2018-06-25T02:33:31.093Z,76.18
2018-06-25T02:35:58.654Z,75.28
2018-06-25T02:38:26.315Z,76.12
2018-06-25T02:40:53.926Z,75.43
2018-06-25T02:43:21.526Z,75.08
2018-06-25T02:45:49.172Z,74.05
2018-06-25T02:48:16.825Z,74.35
2018-06-25T02:50:44.459Z,74.55
2018-06-25T02:53:12.151Z,74.42
2018-06-25T02:55:39.823Z,75.33
2018-06-25T02:58:07.480Z,75.44
2018-06-25T03:00:35.144Z,74.74
2018-06-25T03:03:02.805Z,74.36
2018-06-25T03:05:30.533Z,73.89
2018-06-25T03:07:58.199Z,73.77
2018-06-25T03:10:25.903Z,73.88
2018-06-25T03:12:53.558Z,74.46
2018-06-25T03:15:21.194Z,74.23
2018-06-25T03:17:48.774Z,74.80
2018-06-25T03:20:16.418Z,74.12
2018-06-25T03:22:44.039Z,74.63
2018-06-25T03:25:11.680Z,74.57
2018-06-25T03:27:39.391Z,74.43
2018-06-25T03:30:07.076Z,73.73
2018-06-25T03:32:34.753Z,74.61
2018-06-25T03:35:02.442Z,74.12
2018-06-25T03:37:30.053Z,74.87
2018-06-25T03:42:32.145Z,75.22
2018-06-25T03:44:59.784Z,74.48
2018-06-25T03:47:27.411Z,74.35
2018-06-25T03:49:55.162Z,74.84
2018-06-25T03:52:22.814Z,74.32
2018-06-25T03:54:50.509Z,73.92
2018-06-25T03:57:18.158Z,73.74
2018-06-25T03:59:45.838Z,74.05
2018-06-25T04:02:13.519Z,74.79
2018-06-25T04:04:41.116Z,75.18
2018-06-25T04:07:08.793Z,76.13
2018-06-25T04:09:36.373Z,75.51
2018-06-25T04:12:04.044Z,75.30
2018-06-25T04:14:31.653Z,74.98
2018-06-25T04:16:59.341Z,74.53
2018-06-25T04:19:27.008Z,74.13
2018-06-25T04:21:54.671Z,74.67
2018-06-25T04:24:22.302Z,73.83
2018-06-25T04:26:49.923Z,72.41
2018-06-25T04:29:17.594Z,72.62
2018-06-25T04:31:45.261Z,72.79
2018-06-25T04:34:13.012Z,72.18
2018-06-25T04:36:40.721Z,72.50
2018-06-25T04:39:09.306Z,73.36
2018-06-25T04:41:36.920Z,73.31
2018-06-25T04:44:04.644Z,73.18
2018-06-25T04:46:32.444Z,72.90
2018-06-25T04:49:01.194Z,73.87
2018-06-25T04:51:28.941Z,74.57
2018-06-25T04:53:56.560Z,74.04
2018-06-25T04:56:24.206Z,72.33
2018-06-25T04:58:51.878Z,72.73
2018-06-25T05:01:19.688Z,71.94
2018-06-25T05:03:47.300Z,70.83
2018-06-25T05:06:14.942Z,70.09
2018-06-25T05:08:42.722Z,70.17
2018-06-25T05:11:10.351Z,70.26
2018-06-25T05:13:38.057Z,70.35
2018-06-25T05:16:05.967Z,69.89
2018-06-25T05:18:33.689Z,69.34
2018-06-25T05:21:01.397Z,69.78
2018-06-25T05:23:29.169Z,68.61
2018-06-25T05:25:56.845Z,69.35
2018-06-25T05:28:24.837Z,69.38
2018-06-25T05:30:52.667Z,69.04
2018-06-25T05:33:20.366Z,69.34
2018-06-25T05:35:48.114Z,69.48
2018-06-25T05:38:15.818Z,68.82
2018-06-25T05:40:43.536Z,68.14
2018-06-25T05:43:11.284Z,67.42
2018-06-25T05:45:38.962Z,67.81
2018-06-25T05:48:06.748Z,68.08
2018-06-25T05:50:34.540Z,68.28
2018-06-25T05:53:02.226Z,67.92
2018-06-25T05:55:29.899Z,67.57
2018-06-25T05:57:57.661Z,66.67
2018-06-25T06:00:25.328Z,66.17
2018-06-25T06:02:52.958Z,64.63
2018-06-25T06:05:20.599Z,65.36
2018-06-25T06:07:48.265Z,64.44
2018-06-25T06:10:16.097Z,62.15
2018-06-25T06:12:43.807Z,61.63
2018-06-25T06:15:11.525Z,59.53
2018-06-25T06:17:39.271Z,59.97
2018-06-25T06:20:07.037Z,60.07
2018-06-25T06:22:35.045Z,59.65
2018-06-25T06:25:02.744Z,58.25
2018-06-25T06:27:30.644Z,56.49
2018-06-25T06:29:58.706Z,55.08
2018-06-25T06:32:26.443Z,53.41
2018-06-25T06:34:54.348Z,55.46
2018-06-25T06:37:22.075Z,57.79
2018-06-25T06:39:49.796Z,56.41
2018-06-25T06:42:17.390Z,55.14
2018-06-25T06:44:45.067Z,53.33
2018-06-25T06:47:12.773Z,51.85
2018-06-25T06:49:40.468Z,50.93
2018-06-25T06:52:08.195Z,48.29
2018-06-25T06:54:35.904Z,47.89
2018-06-25T06:57:03.703Z,48.15
2018-06-25T06:59:31.369Z,50.64
2018-06-25T07:01:59.054Z,51.84
2018-06-25T07:04:26.706Z,53.19
2018-06-25T07:06:54.370Z,54.85
2018-06-25T07:09:22.130Z,57.08
2018-06-25T07:11:49.764Z,56.39
2018-06-25T07:14:17.533Z,57.13
2018-06-25T07:16:45.222Z,56.27
2018-06-25T07:19:12.986Z,54.79
2018-06-25T07:21:40.780Z,50.53
2018-06-25T07:24:08.571Z,46.78
2018-06-25T07:26:36.288Z,43.55
2018-06-25T07:29:04.045Z,41.06
2018-06-25T07:31:31.815Z,42.13
2018-06-25T07:33:59.450Z,41.18
2018-06-25T07:36:27.203Z,41.58
2018-06-25T07:38:54.901Z,42.38
2018-06-25T07:41:22.579Z,42.32
2018-06-25T07:43:50.305Z,43.99
2018-06-25T07:46:18.133Z,44.04
2018-06-25T07:48:45.959Z,45.30
2018-06-25T07:51:13.659Z,47.13
2018-06-25T07:53:41.484Z,49.96
2018-06-25T07:56:09.109Z,52.97
2018-06-25T07:58:36.767Z,53.28
2018-06-25T08:01:04.569Z,52.96
2018-06-25T08:03:32.216Z,53.83
2018-06-25T08:06:00.085Z,53.48
2018-06-25T08:08:27.725Z,53.09
2018-06-25T08:10:55.422Z,53.57
2018-06-25T08:13:23.200Z,55.60
2018-06-25T08:15:50.850Z,52.68
2018-06-25T08:18:18.625Z,52.68
2018-06-25T08:20:46.274Z,49.83
2018-06-25T08:23:14.060Z,49.56
2018-06-25T08:25:41.800Z,47.07
2018-06-25T08:28:09.519Z,46.12
2018-06-25T08:30:37.201Z,48.24
2018-06-25T08:33:04.962Z,47.86
2018-06-25T08:35:32.649Z,49.80
2018-06-25T08:38:00.351Z,48.47
2018-06-25T08:40:28.065Z,47.62
2018-06-25T08:42:55.775Z,48.50
2018-06-25T08:45:23.541Z,49.87
2018-06-25T08:47:51.175Z,51.91
2018-06-25T08:50:18.928Z,51.55
2018-06-25T08:52:46.573Z,51.41
2018-06-25T08:55:14.972Z,52.60
2018-06-25T08:57:42.582Z,52.42
2018-06-25T09:00:10.277Z,53.50
2018-06-25T09:02:37.998Z,52.54
2018-06-25T09:05:05.687Z,53.09
2018-06-25T09:07:33.329Z,52.48
2018-06-25T09:10:01.031Z,52.52
2018-06-25T09:12:28.739Z,52.11
2018-06-25T09:14:56.444Z,54.02
2018-06-25T09:17:24.167Z,53.41
2018-06-25T09:19:51.938Z,52.59
2018-06-25T09:22:19.704Z,53.42
2018-06-25T09:24:47.432Z,50.64
2018-06-25T09:27:15.136Z,50.48
2018-06-25T09:29:42.842Z,52.36
2018-06-25T09:32:10.516Z,49.49
2018-06-25T09:34:44.011Z,47.67
2018-06-25T09:37:11.721Z,45.95
2018-06-25T09:39:39.603Z,45.97
2018-06-25T09:42:07.393Z,44.29
2018-06-25T09:44:35.164Z,43.49
2018-06-25T09:47:03.100Z,42.47
2018-06-25T09:49:30.780Z,41.50
2018-06-25T09:51:58.471Z,42.07
2018-06-25T09:54:26.234Z,43.16
2018-06-25T09:56:53.984Z,45.03
2018-06-25T09:59:21.684Z,46.36
2018-06-25T10:01:49.513Z,48.38
2018-06-25T10:04:17.516Z,50.75
2018-06-25T10:06:45.173Z,50.16
2018-06-25T10:09:12.910Z,49.27
2018-06-25T10:11:40.913Z,49.50
2018-06-25T10:14:08.545Z,51.06
2018-06-25T10:16:36.233Z,53.94
2018-06-25T10:19:04.586Z,55.23
2018-06-25T10:21:32.310Z,55.06
2018-06-25T10:24:00.163Z,55.21
2018-06-25T10:26:27.955Z,56.83
2018-06-25T10:28:55.726Z,56.84
2018-06-25T10:31:23.472Z,56.75
2018-06-25T10:33:51.184Z,57.80
2018-06-25T10:36:19.613Z,55.44
2018-06-25T10:38:47.263Z,54.36
2018-06-25T10:41:15.005Z,53.21
2018-06-25T10:43:42.774Z,49.52
2018-06-25T10:46:10.516Z,47.61
2018-06-25T10:48:38.254Z,46.00
2018-06-25T10:51:06.031Z,45.55
2018-06-25T10:53:33.748Z,43.33
2018-06-25T10:56:01.436Z,42.24
2018-06-25T10:58:29.207Z,41.12
2018-06-25T11:00:56.966Z,39.12
2018-06-25T11:03:24.668Z,39.29
2018-06-25T11:05:52.474Z,39.43
2018-06-25T11:08:20.342Z,40.88
2018-06-25T11:10:48.012Z,40.30
2018-06-25T11:13:15.758Z,41.59
2018-06-25T11:15:43.414Z,41.70
2018-06-25T11:18:11.181Z,40.43
2018-06-25T11:20:38.881Z,39.99
2018-06-25T11:23:06.585Z,40.10
2018-06-25T11:25:34.246Z,40.13
2018-06-25T11:28:01.923Z,40.87
2018-06-25T11:30:29.649Z,41.28
2018-06-25T11:33:01.862Z,41.81
2018-06-25T11:35:29.595Z,38.46
2018-06-25T11:37:57.252Z,37.38
2018-06-25T11:40:24.978Z,37.04
2018-06-25T11:42:52.673Z,35.59
2018-06-25T11:45:20.438Z,37.91
2018-06-25T11:47:48.237Z,37.89
2018-06-25T11:50:18.937Z,36.83
2018-06-25T11:52:49.147Z,35.33
2018-06-25T11:55:20.710Z,33.95
2018-06-25T11:57:48.412Z,35.61
2018-06-25T12:00:16.109Z,36.37
2018-06-25T12:02:44.025Z,36.85
2018-06-25T12:05:11.583Z,37.48
2018-06-25T12:07:40.946Z,38.08
2018-06-25T12:10:08.640Z,40.29
2018-06-25T12:12:36.544Z,38.20
2018-06-25T12:15:04.654Z,31.65
2018-06-25T12:17:34.254Z,24.42
2018-06-25T12:20:01.934Z,21.44
2018-06-25T12:22:29.582Z,21.15
2018-06-25T12:24:57.382Z,19.52
2018-06-25T12:27:25.111Z,15.71
2018-06-25T12:29:52.844Z,18.41
2018-06-25T12:32:20.684Z,18.15
2018-06-25T12:34:48.604Z,21.10
2018-06-25T12:37:16.315Z,22.23
2018-06-25T12:39:43.994Z,17.91
2018-06-25T12:42:11.915Z,17.17
2018-06-25T12:44:39.625Z,17.53
2018-06-25T12:47:07.265Z,15.40
2018-06-25T12:49:34.947Z,12.24
2018-06-25T12:52:02.615Z,16.40
2018-06-25T12:54:30.525Z,18.02
2018-06-25T12:56:58.239Z,22.79
2018-06-25T12:59:25.936Z,27.27
2018-06-25T13:01:53.735Z,28.77
2018-06-25T13:04:21.595Z,28.09
2018-06-25T13:06:49.371Z,25.34
2018-06-25T13:09:17.072Z,25.53
2018-06-25T13:11:44.899Z,24.98
2018-06-25T13:14:12.606Z,19.38
2018-06-25T13:16:40.326Z,24.80
2018-06-25T13:19:07.984Z,23.64
2018-06-25T13:21:35.644Z,19.52
2018-06-25T13:24:03.358Z,15.56
2018-06-25T13:26:32.928Z,16.25
2018-06-25T13:29:00.684Z,15.47
2018-06-25T13:31:28.400Z,16.05
2018-06-25T13:33:56.142Z,19.37
2018-06-25T13:36:23.910Z,19.87
2018-06-25T13:38:58.365Z,21.42
2018-06-25T13:41:26.218Z,25.84
2018-06-25T13:43:54.012Z,23.60
2018-06-25T13:46:21.839Z,18.54
2018-06-25T13:48:49.711Z,20.48
2018-06-25T13:51:17.737Z,22.74
2018-06-25T13:53:45.543Z,22.23
2018-06-25T13:56:13.310Z,18.23
2018-06-25T13:58:41.028Z,17.24
2018-06-25T14:01:08.838Z,18.67
2018-06-25T14:03:36.499Z,18.09
2018-06-25T14:06:04.358Z,21.29
2018-06-25T14:08:32.160Z,18.76
2018-06-25T14:10:59.954Z,16.18
2018-06-25T14:13:27.969Z,16.21
2018-06-25T14:15:55.786Z,16.70
2018-06-25T14:18:23.542Z,13.75
2018-06-25T14:20:51.422Z,11.15
2018-06-25T14:23:19.180Z,11.92
2018-06-25T14:25:52.524Z,16.73
2018-06-25T14:28:25.967Z,19.42
2018-06-25T14:30:59.461Z,23.43
2018-06-25T14:33:33.101Z,23.70
2018-06-25T14:36:00.790Z,21.99
2018-06-25T14:38:28.515Z,18.05
2018-06-25T14:40:56.228Z,14.50
2018-06-25T14:43:24.076Z,15.58
2018-06-25T14:45:51.781Z,15.47
2018-06-25T14:48:19.521Z,13.26
2018-06-25T14:50:47.212Z,12.40
2018-06-25T14:53:14.936Z,11.85
2018-06-25T14:55:42.703Z,10.74
2018-06-25T14:58:10.447Z,10.80
2018-06-25T15:00:38.134Z,11.60
2018-06-25T15:03:05.931Z,11.03
2018-06-25T15:05:33.799Z,9.63
2018-06-25T15:08:01.444Z,9.06
2018-06-25T15:10:29.222Z,9.73
2018-06-25T15:12:57.172Z,10.18
2018-06-25T15:15:24.889Z,11.92
2018-06-25T15:17:52.580Z,11.76
2018-06-25T15:20:20.332Z,13.72
2018-06-25T15:22:47.990Z,13.84
2018-06-25T15:25:15.677Z,13.86
2018-06-25T15:27:43.347Z,13.25
2018-06-25T15:30:11.119Z,12.49
2018-06-25T15:32:38.936Z,14.93
2018-06-25T15:35:06.736Z,15.93
2018-06-25T15:37:34.411Z,17.45
2018-06-25T15:40:02.124Z,18.69
2018-06-25T15:42:29.864Z,14.70
2018-06-25T15:44:57.517Z,15.62
2018-06-25T15:47:25.302Z,15.86
2018-06-25T15:49:53.038Z,18.97
2018-06-25T15:52:21.126Z,19.01
2018-06-25T15:54:48.810Z,17.96
2018-06-25T15:57:16.552Z,17.72
2018-06-25T15:59:44.394Z,17.46
2018-06-25T16:02:12.171Z,17.07
2018-06-25T16:04:39.974Z,16.33
2018-06-25T16:07:07.794Z,16.03
2018-06-25T16:09:35.479Z,15.47
2018-06-25T16:12:03.192Z,17.36
2018-06-25T16:14:30.959Z,15.23
2018-06-25T16:16:58.693Z,18.49
2018-06-25T16:19:26.512Z,21.64
2018-06-25T16:21:54.218Z,23.56
2018-06-25T16:24:22.300Z,26.55
2018-06-25T16:26:50.056Z,27.92
2018-06-25T16:29:17.723Z,27.41
2018-06-25T16:31:45.493Z,27.13
2018-06-25T16:34:13.341Z,28.36
2018-06-25T16:36:40.986Z,29.49
2018-06-25T16:39:10.702Z,29.39
2018-06-25T16:41:38.540Z,28.80
2018-06-25T16:44:06.380Z,27.26
2018-06-25T16:46:34.144Z,29.01
2018-06-25T16:49:01.906Z,29.92
2018-06-25T16:51:29.977Z,30.23
2018-06-25T16:53:57.676Z,29.90
2018-06-25T16:56:25.678Z,30.27
2018-06-25T16:58:53.439Z,30.69
2018-06-25T17:01:21.239Z,30.94
2018-06-25T17:03:49.173Z,30.53
2018-06-25T17:06:17.126Z,30.64
2018-06-25T17:08:45.048Z,31.21
2018-06-25T17:11:13.046Z,31.62
2018-06-25T17:13:40.887Z,31.63
2018-06-25T17:16:08.814Z,32.02
2018-06-25T17:18:36.850Z,31.17
2018-06-25T17:21:04.709Z,30.35
2018-06-25T17:23:32.915Z,27.61
2018-06-25T17:26:01.009Z,27.89
2018-06-25T17:28:28.742Z,26.02
2018-06-25T17:30:56.749Z,27.26
2018-06-25T17:33:24.408Z,24.05
2018-06-25T17:35:52.130Z,22.18
2018-06-25T17:38:19.971Z,22.67
2018-06-25T17:40:48.966Z,23.60
2018-06-25T17:43:16.669Z,22.79
2018-06-25T17:45:44.284Z,20.43
2018-06-25T17:48:12.011Z,19.11
2018-06-25T17:50:39.680Z,19.98
2018-06-25T17:53:07.358Z,18.77
2018-06-25T17:55:34.960Z,19.49
2018-06-25T17:58:02.706Z,22.62
2018-06-25T18:00:30.328Z,22.99
2018-06-25T18:02:58.090Z,24.48
2018-06-25T18:05:25.753Z,24.58
2018-06-25T18:07:53.564Z,25.95
2018-06-25T18:10:21.321Z,28.60
2018-06-25T18:12:49.001Z,30.70
2018-06-25T18:15:16.705Z,32.77
2018-06-25T18:17:44.389Z,34.04
2018-06-25T18:20:12.125Z,35.18
2018-06-25T18:22:39.808Z,35.16
2018-06-25T18:25:07.543Z,36.31
2018-06-25T18:27:36.341Z,38.45
2018-06-25T18:30:04.995Z,39.75
2018-06-25T18:32:32.674Z,41.33
2018-06-25T18:35:00.583Z,41.70
2018-06-25T18:37:28.259Z,42.58
2018-06-25T18:39:56.074Z,43.21
2018-06-25T18:42:23.894Z,44.25
2018-06-25T18:44:51.736Z,44.83
2018-06-25T18:47:19.386Z,44.98
2018-06-25T18:49:47.034Z,45.17
2018-06-25T18:52:14.709Z,46.52
2018-06-25T18:54:42.293Z,46.55
2018-06-25T18:57:10.002Z,47.02
2018-06-25T18:59:37.670Z,47.27
2018-06-25T19:02:05.327Z,47.67
2018-06-25T19:04:32.981Z,48.00
2018-06-25T19:07:00.918Z,47.96
2018-06-25T19:09:28.629Z,48.18
2018-06-25T19:11:56.405Z,48.69
2018-06-25T19:14:24.494Z,48.89
2018-06-25T19:16:52.632Z,48.96
2018-06-25T19:19:20.681Z,49.16
2018-06-25T19:21:48.813Z,49.23
2018-06-25T19:24:16.633Z,49.92
2018-06-25T19:26:45.099Z,49.77
2018-06-25T19:29:12.809Z,50.48
2018-06-25T19:31:40.818Z,50.45
2018-06-25T19:34:08.514Z,51.31
2018-06-25T19:36:36.256Z,51.06
2018-06-25T19:39:09.482Z,51.34
2018-06-25T19:41:37.500Z,51.13
2018-06-25T19:44:05.851Z,51.62
2018-06-25T19:46:33.590Z,52.17
2018-06-25T19:49:01.302Z,52.01
2018-06-25T19:51:28.966Z,52.98
2018-06-25T19:53:56.569Z,52.85
2018-06-25T19:56:24.199Z,53.68
2018-06-25T19:58:52.165Z,53.32
2018-06-25T20:01:19.894Z,53.96
2018-06-25T20:03:47.579Z,54.10
2018-06-25T20:06:15.472Z,54.56
2018-06-25T20:08:43.221Z,55.38
2018-06-25T20:11:11.169Z,55.93
2018-06-25T20:13:39.157Z,56.74
2018-06-25T20:16:06.851Z,56.43
2018-06-25T20:18:36.306Z,56.37
2018-06-25T20:21:04.705Z,55.98
2018-06-25T20:23:32.387Z,54.57
2018-06-25T20:26:00.220Z,54.29
2018-06-25T20:28:27.807Z,54.24
2018-06-25T20:30:55.393Z,54.23
2018-06-25T20:33:23.139Z,54.11
2018-06-25T20:35:50.817Z,53.67
2018-06-25T20:38:18.541Z,53.40
2018-06-25T20:40:46.233Z,53.41
2018-06-25T20:43:13.909Z,52.63
2018-06-25T20:45:41.582Z,53.25
2018-06-25T20:48:09.287Z,52.73
2018-06-25T20:50:36.893Z,52.49
2018-06-25T20:53:04.589Z,52.77
2018-06-25T20:55:32.242Z,52.69
2018-06-25T20:57:59.884Z,52.79
2018-06-25T21:00:27.602Z,53.24
2018-06-25T21:02:55.302Z,53.07
2018-06-25T21:05:22.996Z,52.55
2018-06-25T21:07:50.696Z,53.09
2018-06-25T21:10:18.474Z,52.87
2018-06-25T21:12:46.217Z,52.98
2018-06-25T21:15:13.834Z,54.32
2018-06-25T21:17:41.507Z,55.17
2018-06-25T21:20:09.171Z,56.07
2018-06-25T21:22:36.757Z,56.56
2018-06-25T21:25:05.109Z,57.19
2018-06-25T21:27:32.841Z,56.88
2018-06-25T21:30:00.500Z,57.33
2018-06-25T21:32:28.118Z,56.65
2018-06-25T21:34:55.731Z,57.78
2018-06-25T21:37:23.358Z,58.72
2018-06-25T21:39:51.006Z,58.31
2018-06-25T21:42:18.662Z,58.48
2018-06-25T21:44:46.342Z,58.30
2018-06-25T21:47:13.954Z,58.00
2018-06-25T21:49:41.642Z,57.93
2018-06-25T21:52:09.294Z,58.77
2018-06-25T21:54:36.954Z,58.45
2018-06-25T21:57:04.614Z,59.20
2018-06-25T21:59:32.242Z,59.34
2018-06-25T22:01:59.898Z,59.38
2018-06-25T22:04:27.669Z,60.45
2018-06-25T22:06:55.472Z,61.17
2018-06-25T22:09:23.126Z,61.71
2018-06-25T22:11:50.786Z,61.04
2018-06-25T22:14:18.599Z,62.03
2018-06-25T22:16:46.245Z,61.47
2018-06-25T22:19:13.829Z,61.19
2018-06-25T22:21:41.719Z,61.75
2018-06-25T22:24:09.413Z,61.66
2018-06-25T22:26:37.040Z,61.59
2018-06-25T22:29:05.109Z,61.45
2018-06-25T22:31:32.755Z,62.18
2018-06-25T22:34:00.405Z,62.02
2018-06-25T22:36:28.052Z,62.07
2018-06-25T22:38:55.668Z,62.87
2018-06-25T22:41:23.279Z,63.52
2018-06-25T22:43:50.932Z,63.27
2018-06-25T22:46:18.592Z,63.44
2018-06-25T22:48:46.228Z,64.04
2018-06-25T22:51:13.913Z,63.53
2018-06-25T22:53:41.514Z,64.04
2018-06-25T22:56:09.092Z,64.88
2018-06-25T22:58:36.706Z,66.07
2018-06-25T23:01:04.542Z,65.99
2018-06-25T23:03:32.155Z,66.10
2018-06-25T23:05:59.774Z,66.33
2018-06-25T23:08:27.437Z,66.76
2018-06-25T23:10:55.090Z,66.96
2018-06-25T23:13:22.729Z,66.93
2018-06-25T23:15:50.425Z,66.48
2018-06-25T23:18:18.069Z,66.14
2018-06-25T23:20:45.690Z,67.35
2018-06-25T23:23:13.346Z,67.08
2018-06-25T23:25:40.959Z,65.96
2018-06-25T23:28:08.697Z,65.95
2018-06-25T23:30:36.250Z,66.59
2018-06-25T23:33:03.822Z,65.92
2018-06-25T23:35:31.419Z,65.87
2018-06-25T23:37:58.959Z,65.11
2018-06-25T23:40:26.576Z,65.85
2018-06-25T23:42:54.221Z,66.21
2018-06-25T23:45:21.798Z,66.37
2018-06-25T23:47:49.424Z,66.25
2018-06-25T23:50:17.062Z,65.46
2018-06-25T23:52:44.726Z,65.09
2018-06-25T23:55:12.347Z,65.56
2018-06-25T23:57:39.924Z,65.48
